Flight Track Log - Related Links

Times and Time Zones

All times are in EDT time to prevent confusion due to time zone crossing. See the GLA154 flight status page for this flight to view local times or setup timezone preferences in your user account.

Time Position Orientation Groundspeed Altitude Reporting Facility
EDT Latitude Longitude Course Direction KTS MPH feet Rate Location/Type
Thu 10:32:30 AM 35.1206 -114.0814 222° Southwest 216 249 9,200  Level Los Angeles Center
Thu 10:33:32 AM 35.0700 -114.1306 219° Southwest 226 260 10,800 1,415 Climbing Los Angeles Center
Thu 10:34:33 AM 35.0178 -114.1800 218° Southwest 235 270 12,100 1,317 Climbing Los Angeles Center
Thu 10:35:35 AM 34.9658 -114.2339 220° Southwest 243 280 13,500 1,839 Climbing Los Angeles Center
Thu 10:36:37 AM 34.9519 -114.3050 257° West 208 239 15,900 1,756 Climbing Los Angeles Center
Thu 10:37:38 AM 34.9433 -114.3578 259° West 198 228 17,100 1,366 Climbing Los Angeles Center
Thu 10:38:40 AM 34.9311 -114.4375 259° West 200 230 18,700 1,355 Climbing Los Angeles Center
Thu 10:39:42 AM 34.9142 -114.5211 256° West 207 238 19,900 629 Climbing Los Angeles Center
Thu 10:40:44 AM 34.9092 -114.6011 266° West 227 261 20,000 48 Climbing Los Angeles Center
Thu 10:41:46 AM 34.9111 -114.6853 272° West 243 280 20,000  Level Los Angeles Center
Thu 10:42:47 AM 34.9125 -114.7714 271° West 252 290 20,000  Level Los Angeles Center
Thu 10:43:49 AM 34.9131 -114.8575 270° West 255 293 20,000  Level Los Angeles Center
Thu 10:44:51 AM 34.9153 -114.9444 272° West 256 295 20,000  Level Los Angeles Center
Thu 10:45:52 AM 34.9161 -115.0319 271° West 258 297 20,000  Level Los Angeles Center
Thu 10:46:54 AM 34.9203 -115.1192 273° West 258 297 20,000  Level Los Angeles Center
Thu 10:47:56 AM 34.9225 -115.2183 272° West 245 282 20,000  Level Los Angeles Center
Thu 10:48:57 AM 34.9242 -115.2992 271° West 241 277 20,000  Level Los Angeles Center
Thu 10:49:59 AM 34.9189 -115.3792 265° West 237 273 20,000  Level Los Angeles Center
Thu 10:51:01 AM 34.8989 -115.4567 253° West 242 278 20,000 48 Level Los Angeles Center
Thu 10:52:03 AM 34.8697 -115.5322 245° Southwest 245 282 20,100  Climbing Los Angeles Center
Thu 10:53:04 AM 34.8458 -115.6147 251° West 248 285 20,000 -49 Descending Los Angeles Center
Thu 10:54:06 AM 34.8322 -115.6919 258° West 236 272 20,000  Level Los Angeles Center
Thu 10:55:08 AM 34.8236 -115.7711 262° West 236 272 20,000 48 Level Los Angeles Center
Thu 10:56:10 AM 34.8208 -115.8467 267° West 226 260 20,100  Climbing Los Angeles Center
Thu 10:57:11 AM 34.8156 -115.9261 265° West 232 267 20,000 -49 Descending Los Angeles Center
Thu 10:58:13 AM 34.8128 -116.0217 268° West 236 272 20,000  Level Los Angeles Center
Thu 10:59:15 AM 34.8108 -116.0967 268° West 229 264 20,000  Level Los Angeles Center
Thu 11:00:17 AM 34.8075 -116.1733 267° West 227 261 20,000  Level Los Angeles Center
Thu 11:01:18 AM 34.8014 -116.2506 265° West 227 261 20,000  Level Los Angeles Center
Thu 11:02:20 AM 34.7983 -116.3275 267° West 228 262 20,000  Level Los Angeles Center
Thu 11:03:22 AM 34.7936 -116.4044 266° West 229 264 20,000  Level Los Angeles Center
Thu 11:04:24 AM 34.7892 -116.4825 266° West 232 267 20,000  Level Los Angeles Center
Thu 11:05:26 AM 34.7842 -116.5775 266° West 233 268 20,000  Level Los Angeles Center
Thu 11:06:28 AM 34.7792 -116.6547 266° West 231 266 20,000  Level Los Angeles Center
Thu 11:07:30 AM 34.7722 -116.7317 264° West 230 265 20,000  Level Los Angeles Center
Thu 11:08:32 AM 34.7517 -116.8081 252° West 237 273 20,000  Level Los Angeles Center
Thu 11:09:34 AM 34.7303 -116.8842 251° West 238 274 20,000  Level Los Angeles Center
Thu 11:10:36 AM 34.7150 -116.9614 256° West 236 272 20,000 -1,065 Level Los Angeles Center
Thu 11:11:38 AM 34.7014 -117.0575 260° West 240 276 17,800 -1,645 Descending Los Angeles Center
Thu 11:12:40 AM 34.6919 -117.1386 262° West 243 280 16,600 -1,258 Descending Los Angeles Center
Thu 11:13:42 AM 34.6883 -117.2147 267° West 230 265 15,200 -1,258 Descending Los Angeles Center
Thu 11:14:44 AM 34.6886 -117.2908 270° West 225 259 14,000 -1,210 Descending Los Angeles Center
Thu 11:15:46 AM 34.6894 -117.3639 271° West 217 250 12,700 -919 Descending Los Angeles Center
Thu 11:16:48 AM 34.6856 -117.4389 266° West 219 252 12,100 -290 Descending Los Angeles Center
Thu 11:17:50 AM 34.6781 -117.5175 263° West 228 262 12,100  Level Los Angeles Center
Thu 11:18:52 AM 34.6658 -117.6122 261° West 236 272 12,100 -290 Level Los Angeles Center
Thu 11:19:54 AM 34.6589 -117.6933 264° West 241 277 11,500 -774 Descending Los Angeles Center
Thu 11:20:56 AM 34.6542 -117.7711 266° West 236 272 10,500 -968 Descending Los Angeles Center
Thu 11:21:58 AM 34.6500 -117.8464 266° West 228 262 9,500 -1,016 Descending Los Angeles Center
Thu 11:23:00 AM 34.6428 -117.9228 263° West 227 261 8,400 -677 Descending Los Angeles Center
Thu 11:24:02 AM 34.6336 -118.0014 262° West 230 265 8,100 -145 Descending Los Angeles Center
Thu 11:25:04 AM 34.6136 -118.0975 256° West 241 277 8,100  Level Los Angeles Center
Thu 11:26:07 AM 34.5725 -118.1578 230° Southwest 250 288 8,100  Level Los Angeles Center
Thu 11:27:09 AM 34.5269 -118.2250 231° Southwest 254 292 8,100  Level Los Angeles Center
Thu 11:28:11 AM 34.4775 -118.3058 233° Southwest 250 288 8,100  Level Los Angeles Center
Thu 11:29:13 AM 34.4278 -118.3608 222° Southwest 244 281 8,100 -290 Level Los Angeles Center
Thu 11:30:15 AM 34.3614 -118.3672 185° South 236 272 7,500 -581 Descending Los Angeles Center
Thu 11:31:17 AM 34.2981 -118.3369 158° South 241 277 6,900 -435 Descending Los Angeles Center
Thu 11:32:19 AM 34.2425 -118.3069 156° South 229 264 6,600 -390 Descending Los Angeles Center
Thu 11:33:20 AM 34.1914 -118.2706 150° Southeast 217 250 6,100 -683 Descending Los Angeles Center
Thu 11:34:22 AM 34.1094 -118.2489 168° South 252 290 5,200 -1,161 Descending Los Angeles Center
Thu 11:35:24 AM 34.0375 -118.2597 187° South 257 296 3,700 -1,258 Descending Los Angeles Center
Thu 11:36:26 AM 33.9783 -118.2903 203° Southwest 250 288 2,600 -1,306 Descending Los Angeles Center
Thu 11:37:28 AM 33.9581 -118.3497 248° West 211 243 1,000 -1,065 Descending Los Angeles Center
Thu 11:38:30 AM 33.9539 -118.3919 263° West 155 178 400 -581 Descending Los Angeles Center
Thu 11:40:00 AM 33.9333 -118.4000 228° Southwest  Level FlightAware Approximate
Thu 11:47:00 AM 33.9425 -118.4081 228° Southwest  Level Estimated

Login

Don't have an account? Register now (free) for customized features, flight alerts, and more!